sensor_id;sensor_type;location;lat;lon;timestamp;temperature;humidity
4245;DHT22;2136;48.502;9.194;2023-04-06T00:00:10;5.30;52.40
4245;DHT22;2136;48.502;9.194;2023-04-06T00:02:39;5.20;52.60
4245;DHT22;2136;48.502;9.194;2023-04-06T00:05:06;5.20;51.60
4245;DHT22;2136;48.502;9.194;2023-04-06T00:07:34;5.20;51.30
4245;DHT22;2136;48.502;9.194;2023-04-06T00:10:01;5.10;51.10
4245;DHT22;2136;48.502;9.194;2023-04-06T00:12:28;5.10;51.40
4245;DHT22;2136;48.502;9.194;2023-04-06T00:14:55;5.00;50.80
4245;DHT22;2136;48.502;9.194;2023-04-06T00:17:22;5.00;50.90
4245;DHT22;2136;48.502;9.194;2023-04-06T00:19:50;4.90;51.10
4245;DHT22;2136;48.502;9.194;2023-04-06T00:22:17;4.80;51.40
4245;DHT22;2136;48.502;9.194;2023-04-06T00:24:44;4.70;51.60
4245;DHT22;2136;48.502;9.194;2023-04-06T00:27:11;4.70;52.00
4245;DHT22;2136;48.502;9.194;2023-04-06T00:29:39;4.60;52.40
4245;DHT22;2136;48.502;9.194;2023-04-06T00:32:06;4.60;52.60
4245;DHT22;2136;48.502;9.194;2023-04-06T00:34:33;4.50;52.60
4245;DHT22;2136;48.502;9.194;2023-04-06T00:37:01;4.40;52.80
4245;DHT22;2136;48.502;9.194;2023-04-06T00:39:28;4.40;52.70
4245;DHT22;2136;48.502;9.194;2023-04-06T00:41:55;4.30;52.90
4245;DHT22;2136;48.502;9.194;2023-04-06T00:44:24;4.30;53.10
4245;DHT22;2136;48.502;9.194;2023-04-06T00:46:51;4.20;52.90
4245;DHT22;2136;48.502;9.194;2023-04-06T00:49:18;4.20;53.30
4245;DHT22;2136;48.502;9.194;2023-04-06T00:51:45;4.10;53.30
4245;DHT22;2136;48.502;9.194;2023-04-06T00:54:14;4.20;53.70
4245;DHT22;2136;48.502;9.194;2023-04-06T00:56:41;4.20;53.90
4245;DHT22;2136;48.502;9.194;2023-04-06T00:59:09;4.10;54.00
4245;DHT22;2136;48.502;9.194;2023-04-06T01:01:37;3.90;54.10
4245;DHT22;2136;48.502;9.194;2023-04-06T01:04:03;4.10;54.00
4245;DHT22;2136;48.502;9.194;2023-04-06T01:06:30;4.10;53.90
4245;DHT22;2136;48.502;9.194;2023-04-06T01:08:57;3.90;53.90
4245;DHT22;2136;48.502;9.194;2023-04-06T01:11:26;3.90;54.00
4245;DHT22;2136;48.502;9.194;2023-04-06T01:13:53;3.80;54.10
4245;DHT22;2136;48.502;9.194;2023-04-06T01:16:20;3.90;54.20
4245;DHT22;2136;48.502;9.194;2023-04-06T01:18:47;3.90;54.40
4245;DHT22;2136;48.502;9.194;2023-04-06T01:21:13;3.90;54.10
4245;DHT22;2136;48.502;9.194;2023-04-06T01:23:44;4.00;54.20
4245;DHT22;2136;48.502;9.194;2023-04-06T01:26:11;4.00;54.20
4245;DHT22;2136;48.502;9.194;2023-04-06T01:28:38;3.90;54.30
4245;DHT22;2136;48.502;9.194;2023-04-06T01:31:07;3.70;54.40
4245;DHT22;2136;48.502;9.194;2023-04-06T01:33:34;3.60;54.80
4245;DHT22;2136;48.502;9.194;2023-04-06T01:36:02;3.60;55.00
4245;DHT22;2136;48.502;9.194;2023-04-06T01:38:29;3.50;55.10
4245;DHT22;2136;48.502;9.194;2023-04-06T01:40:57;3.50;55.00
4245;DHT22;2136;48.502;9.194;2023-04-06T01:43:24;3.50;55.30
4245;DHT22;2136;48.502;9.194;2023-04-06T01:45:51;3.40;55.50
4245;DHT22;2136;48.502;9.194;2023-04-06T01:48:18;3.30;55.50
4245;DHT22;2136;48.502;9.194;2023-04-06T01:50:45;3.30;55.90
4245;DHT22;2136;48.502;9.194;2023-04-06T01:53:12;3.30;56.00
4245;DHT22;2136;48.502;9.194;2023-04-06T01:55:39;3.40;56.20
4245;DHT22;2136;48.502;9.194;2023-04-06T01:58:08;3.30;56.00
4245;DHT22;2136;48.502;9.194;2023-04-06T02:00:35;3.20;56.00
4245;DHT22;2136;48.502;9.194;2023-04-06T02:03:02;3.20;56.00
4245;DHT22;2136;48.502;9.194;2023-04-06T02:05:30;3.20;56.00
4245;DHT22;2136;48.502;9.194;2023-04-06T02:07:58;3.10;56.50
4245;DHT22;2136;48.502;9.194;2023-04-06T02:10:25;3.10;56.60
4245;DHT22;2136;48.502;9.194;2023-04-06T02:12:52;3.20;56.90
4245;DHT22;2136;48.502;9.194;2023-04-06T02:15:20;3.00;56.90
4245;DHT22;2136;48.502;9.194;2023-04-06T02:17:47;3.00;56.90
4245;DHT22;2136;48.502;9.194;2023-04-06T02:20:14;3.00;56.90
4245;DHT22;2136;48.502;9.194;2023-04-06T02:22:41;3.00;57.20
4245;DHT22;2136;48.502;9.194;2023-04-06T02:25:08;3.10;57.40
4245;DHT22;2136;48.502;9.194;2023-04-06T02:27:36;3.00;57.50
4245;DHT22;2136;48.502;9.194;2023-04-06T02:30:03;2.90;57.70
4245;DHT22;2136;48.502;9.194;2023-04-06T02:32:32;2.90;57.90
4245;DHT22;2136;48.502;9.194;2023-04-06T02:34:59;2.80;58.00
4245;DHT22;2136;48.502;9.194;2023-04-06T02:37:26;2.80;58.40
4245;DHT22;2136;48.502;9.194;2023-04-06T02:39:53;2.80;58.30
4245;DHT22;2136;48.502;9.194;2023-04-06T02:42:20;2.80;58.60
4245;DHT22;2136;48.502;9.194;2023-04-06T02:44:47;2.80;58.60
4245;DHT22;2136;48.502;9.194;2023-04-06T02:47:14;2.70;58.60
4245;DHT22;2136;48.502;9.194;2023-04-06T02:49:43;2.70;58.70
4245;DHT22;2136;48.502;9.194;2023-04-06T02:52:09;2.90;58.80
4245;DHT22;2136;48.502;9.194;2023-04-06T02:54:36;2.80;58.70
4245;DHT22;2136;48.502;9.194;2023-04-06T02:57:03;2.80;58.60
4245;DHT22;2136;48.502;9.194;2023-04-06T02:59:31;2.70;58.40
4245;DHT22;2136;48.502;9.194;2023-04-06T03:01:58;2.80;58.60
4245;DHT22;2136;48.502;9.194;2023-04-06T03:04:25;2.70;58.70
4245;DHT22;2136;48.502;9.194;2023-04-06T03:06:54;2.70;59.00
4245;DHT22;2136;48.502;9.194;2023-04-06T03:09:21;2.60;59.00
4245;DHT22;2136;48.502;9.194;2023-04-06T03:11:47;2.70;59.30
4245;DHT22;2136;48.502;9.194;2023-04-06T03:14:14;2.60;59.40
4245;DHT22;2136;48.502;9.194;2023-04-06T03:16:42;2.70;59.60
4245;DHT22;2136;48.502;9.194;2023-04-06T03:19:10;2.60;59.40
4245;DHT22;2136;48.502;9.194;2023-04-06T03:21:36;2.60;59.50
4245;DHT22;2136;48.502;9.194;2023-04-06T03:24:06;2.60;59.50
4245;DHT22;2136;48.502;9.194;2023-04-06T03:26:33;2.60;60.10
4245;DHT22;2136;48.502;9.194;2023-04-06T03:29:00;2.50;60.00
4245;DHT22;2136;48.502;9.194;2023-04-06T03:31:27;2.70;60.10
4245;DHT22;2136;48.502;9.194;2023-04-06T03:33:54;2.60;60.00
4245;DHT22;2136;48.502;9.194;2023-04-06T03:36:21;2.50;60.00
4245;DHT22;2136;48.502;9.194;2023-04-06T03:38:48;2.50;59.70
4245;DHT22;2136;48.502;9.194;2023-04-06T03:41:16;2.50;59.50
4245;DHT22;2136;48.502;9.194;2023-04-06T03:43:43;2.50;59.50
4245;DHT22;2136;48.502;9.194;2023-04-06T03:46:10;2.50;59.70
4245;DHT22;2136;48.502;9.194;2023-04-06T03:48:37;2.50;59.80
4245;DHT22;2136;48.502;9.194;2023-04-06T03:51:05;2.40;59.80
4245;DHT22;2136;48.502;9.194;2023-04-06T03:53:31;2.50;59.80
4245;DHT22;2136;48.502;9.194;2023-04-06T03:55:58;2.40;59.90
4245;DHT22;2136;48.502;9.194;2023-04-06T03:58:27;2.40;60.10
4245;DHT22;2136;48.502;9.194;2023-04-06T04:00:54;2.50;60.70
4245;DHT22;2136;48.502;9.194;2023-04-06T04:03:21;2.40;60.50
4245;DHT22;2136;48.502;9.194;2023-04-06T04:05:49;2.40;60.30
4245;DHT22;2136;48.502;9.194;2023-04-06T04:08:16;2.40;59.90
4245;DHT22;2136;48.502;9.194;2023-04-06T04:10:43;2.50;59.70
4245;DHT22;2136;48.502;9.194;2023-04-06T04:13:10;2.50;59.60
4245;DHT22;2136;48.502;9.194;2023-04-06T04:15:38;2.40;59.60
4245;DHT22;2136;48.502;9.194;2023-04-06T04:18:05;2.30;59.60
4245;DHT22;2136;48.502;9.194;2023-04-06T04:20:32;2.30;59.70
4245;DHT22;2136;48.502;9.194;2023-04-06T04:22:59;2.20;59.80
4245;DHT22;2136;48.502;9.194;2023-04-06T04:25:26;2.20;60.70
4245;DHT22;2136;48.502;9.194;2023-04-06T04:27:53;2.20;60.10
4245;DHT22;2136;48.502;9.194;2023-04-06T04:30:20;2.20;60.50
4245;DHT22;2136;48.502;9.194;2023-04-06T04:32:48;2.20;60.60
4245;DHT22;2136;48.502;9.194;2023-04-06T04:35:15;2.10;60.70
4245;DHT22;2136;48.502;9.194;2023-04-06T04:37:42;2.10;61.00
4245;DHT22;2136;48.502;9.194;2023-04-06T04:40:10;2.10;61.20
4245;DHT22;2136;48.502;9.194;2023-04-06T04:42:37;2.10;61.30
4245;DHT22;2136;48.502;9.194;2023-04-06T04:45:04;2.10;61.30
4245;DHT22;2136;48.502;9.194;2023-04-06T04:47:31;2.10;61.60
4245;DHT22;2136;48.502;9.194;2023-04-06T04:50:00;2.20;61.40
4245;DHT22;2136;48.502;9.194;2023-04-06T04:52:27;2.20;61.50
4245;DHT22;2136;48.502;9.194;2023-04-06T04:54:53;2.00;61.30
4245;DHT22;2136;48.502;9.194;2023-04-06T04:57:20;2.00;61.20
4245;DHT22;2136;48.502;9.194;2023-04-06T04:59:47;2.00;61.90
4245;DHT22;2136;48.502;9.194;2023-04-06T05:02:16;2.10;61.90
4245;DHT22;2136;48.502;9.194;2023-04-06T05:04:43;2.00;62.60
4245;DHT22;2136;48.502;9.194;2023-04-06T05:07:11;2.10;62.90
4245;DHT22;2136;48.502;9.194;2023-04-06T05:09:38;2.00;62.70
4245;DHT22;2136;48.502;9.194;2023-04-06T05:12:06;2.00;62.60
4245;DHT22;2136;48.502;9.194;2023-04-06T05:14:33;2.10;62.90
4245;DHT22;2136;48.502;9.194;2023-04-06T05:17:00;2.10;62.60
4245;DHT22;2136;48.502;9.194;2023-04-06T05:19:27;2.20;62.40
4245;DHT22;2136;48.502;9.194;2023-04-06T05:21:54;2.20;62.00
4245;DHT22;2136;48.502;9.194;2023-04-06T05:24:22;2.20;61.90
4245;DHT22;2136;48.502;9.194;2023-04-06T05:26:49;2.30;61.80
4245;DHT22;2136;48.502;9.194;2023-04-06T05:29:16;2.30;61.30
4245;DHT22;2136;48.502;9.194;2023-04-06T05:31:43;2.30;61.30
4245;DHT22;2136;48.502;9.194;2023-04-06T05:34:10;2.30;61.10
4245;DHT22;2136;48.502;9.194;2023-04-06T05:36:38;2.40;61.40
4245;DHT22;2136;48.502;9.194;2023-04-06T05:39:05;2.40;61.00
4245;DHT22;2136;48.502;9.194;2023-04-06T05:41:34;2.50;60.70
4245;DHT22;2136;48.502;9.194;2023-04-06T05:44:01;2.50;60.50
4245;DHT22;2136;48.502;9.194;2023-04-06T05:46:28;2.50;60.50
4245;DHT22;2136;48.502;9.194;2023-04-06T05:48:54;2.70;60.50
4245;DHT22;2136;48.502;9.194;2023-04-06T05:51:22;2.80;60.40
4245;DHT22;2136;48.502;9.194;2023-04-06T05:53:48;2.70;59.90
4245;DHT22;2136;48.502;9.194;2023-04-06T05:56:15;2.80;59.80
4245;DHT22;2136;48.502;9.194;2023-04-06T05:58:44;2.80;59.70
4245;DHT22;2136;48.502;9.194;2023-04-06T06:01:11;2.90;59.60
4245;DHT22;2136;48.502;9.194;2023-04-06T06:03:38;3.00;59.80
4245;DHT22;2136;48.502;9.194;2023-04-06T06:06:05;3.00;59.70
4245;DHT22;2136;48.502;9.194;2023-04-06T06:08:32;3.10;59.60
4245;DHT22;2136;48.502;9.194;2023-04-06T06:10:59;3.30;59.60
4245;DHT22;2136;48.502;9.194;2023-04-06T06:13:26;3.30;59.30
4245;DHT22;2136;48.502;9.194;2023-04-06T06:15:54;3.40;59.20
4245;DHT22;2136;48.502;9.194;2023-04-06T06:18:21;3.60;59.10
4245;DHT22;2136;48.502;9.194;2023-04-06T06:20:48;3.70;58.70
4245;DHT22;2136;48.502;9.194;2023-04-06T06:23:15;3.70;58.40
4245;DHT22;2136;48.502;9.194;2023-04-06T06:25:42;3.80;58.20
4245;DHT22;2136;48.502;9.194;2023-04-06T06:28:09;3.90;57.90
4245;DHT22;2136;48.502;9.194;2023-04-06T06:30:36;4.10;57.80
4245;DHT22;2136;48.502;9.194;2023-04-06T06:33:04;4.10;57.40
4245;DHT22;2136;48.502;9.194;2023-04-06T06:35:31;4.20;56.80
4245;DHT22;2136;48.502;9.194;2023-04-06T06:37:58;4.30;56.30
4245;DHT22;2136;48.502;9.194;2023-04-06T06:40:25;4.40;55.90
4245;DHT22;2136;48.502;9.194;2023-04-06T06:42:52;4.50;55.60
4245;DHT22;2136;48.502;9.194;2023-04-06T06:45:19;4.50;55.40
4245;DHT22;2136;48.502;9.194;2023-04-06T06:47:46;4.60;55.40
4245;DHT22;2136;48.502;9.194;2023-04-06T06:50:14;4.80;55.40
4245;DHT22;2136;48.502;9.194;2023-04-06T06:52:41;4.70;54.90
4245;DHT22;2136;48.502;9.194;2023-04-06T06:55:09;4.80;54.40
4245;DHT22;2136;48.502;9.194;2023-04-06T06:57:36;4.90;54.10
4245;DHT22;2136;48.502;9.194;2023-04-06T07:00:05;5.00;54.00
4245;DHT22;2136;48.502;9.194;2023-04-06T07:02:34;5.00;54.20
4245;DHT22;2136;48.502;9.194;2023-04-06T07:05:01;5.10;54.10
4245;DHT22;2136;48.502;9.194;2023-04-06T07:07:30;5.20;53.70
4245;DHT22;2136;48.502;9.194;2023-04-06T07:09:56;5.30;53.80
4245;DHT22;2136;48.502;9.194;2023-04-06T07:12:23;5.50;53.50
4245;DHT22;2136;48.502;9.194;2023-04-06T07:14:50;5.50;53.20
4245;DHT22;2136;48.502;9.194;2023-04-06T07:17:17;5.70;53.20
4245;DHT22;2136;48.502;9.194;2023-04-06T07:19:44;5.60;52.30
4245;DHT22;2136;48.502;9.194;2023-04-06T07:22:11;5.70;52.50
4245;DHT22;2136;48.502;9.194;2023-04-06T07:24:40;5.80;52.50
4245;DHT22;2136;48.502;9.194;2023-04-06T07:27:07;5.90;52.30
4245;DHT22;2136;48.502;9.194;2023-04-06T07:29:34;6.00;52.00
4245;DHT22;2136;48.502;9.194;2023-04-06T07:32:01;6.20;51.20
4245;DHT22;2136;48.502;9.194;2023-04-06T07:34:28;6.30;51.20
4245;DHT22;2136;48.502;9.194;2023-04-06T07:36:55;6.40;50.60
4245;DHT22;2136;48.502;9.194;2023-04-06T07:39:25;6.50;49.30
4245;DHT22;2136;48.502;9.194;2023-04-06T07:42:00;6.60;49.10
4245;DHT22;2136;48.502;9.194;2023-04-06T07:44:27;6.70;50.80
4245;DHT22;2136;48.502;9.194;2023-04-06T07:46:54;6.90;50.50
4245;DHT22;2136;48.502;9.194;2023-04-06T07:49:21;7.00;50.10
4245;DHT22;2136;48.502;9.194;2023-04-06T07:51:48;7.10;49.50
4245;DHT22;2136;48.502;9.194;2023-04-06T07:54:15;7.20;50.30
4245;DHT22;2136;48.502;9.194;2023-04-06T07:56:42;7.40;49.60
4245;DHT22;2136;48.502;9.194;2023-04-06T07:59:11;7.50;48.70
4245;DHT22;2136;48.502;9.194;2023-04-06T08:01:39;7.60;50.20
4245;DHT22;2136;48.502;9.194;2023-04-06T08:04:06;7.80;50.00
4245;DHT22;2136;48.502;9.194;2023-04-06T08:06:33;8.00;49.60
4245;DHT22;2136;48.502;9.194;2023-04-06T08:09:01;8.10;49.00
4245;DHT22;2136;48.502;9.194;2023-04-06T08:11:29;8.20;48.70
4245;DHT22;2136;48.502;9.194;2023-04-06T08:13:56;8.30;48.40
4245;DHT22;2136;48.502;9.194;2023-04-06T08:16:25;8.50;48.80
4245;DHT22;2136;48.502;9.194;2023-04-06T08:18:57;8.70;48.20
4245;DHT22;2136;48.502;9.194;2023-04-06T08:24:13;9.00;48.90
4245;DHT22;2136;48.502;9.194;2023-04-06T08:26:40;9.50;47.30
4245;DHT22;2136;48.502;9.194;2023-04-06T08:29:08;9.80;46.50
4245;DHT22;2136;48.502;9.194;2023-04-06T08:31:41;10.10;45.40
4245;DHT22;2136;48.502;9.194;2023-04-06T08:34:17;10.50;43.50
4245;DHT22;2136;48.502;9.194;2023-04-06T08:36:44;10.90;44.40
4245;DHT22;2136;48.502;9.194;2023-04-06T08:39:20;11.50;43.90
4245;DHT22;2136;48.502;9.194;2023-04-06T08:42:22;12.30;42.70
4245;DHT22;2136;48.502;9.194;2023-04-06T08:44:54;13.30;40.30
4245;DHT22;2136;48.502;9.194;2023-04-06T08:47:25;14.20;38.30
4245;DHT22;2136;48.502;9.194;2023-04-06T08:49:52;15.20;36.30
4245;DHT22;2136;48.502;9.194;2023-04-06T08:52:20;16.10;34.20
4245;DHT22;2136;48.502;9.194;2023-04-06T08:54:47;17.20;33.40
4245;DHT22;2136;48.502;9.194;2023-04-06T08:57:33;18.80;32.10
4245;DHT22;2136;48.502;9.194;2023-04-06T09:00:24;20.60;30.80
4245;DHT22;2136;48.502;9.194;2023-04-06T09:02:55;22.30;29.40
4245;DHT22;2136;48.502;9.194;2023-04-06T09:05:24;23.90;28.80
4245;DHT22;2136;48.502;9.194;2023-04-06T09:11:07;25.50;27.10
4245;DHT22;2136;48.502;9.194;2023-04-06T09:12:03;27.40;25.70
4245;DHT22;2136;48.502;9.194;2023-04-06T09:15:19;29.90;24.10
4245;DHT22;2136;48.502;9.194;2023-04-06T09:17:46;31.40;22.80
4245;DHT22;2136;48.502;9.194;2023-04-06T09:20:14;32.80;22.60
4245;DHT22;2136;48.502;9.194;2023-04-06T09:22:48;34.20;21.90
4245;DHT22;2136;48.502;9.194;2023-04-06T09:25:19;35.50;21.50
4245;DHT22;2136;48.502;9.194;2023-04-06T09:27:46;36.90;20.80
4245;DHT22;2136;48.502;9.194;2023-04-06T09:30:14;38.40;20.60
4245;DHT22;2136;48.502;9.194;2023-04-06T09:32:48;39.50;19.60
4245;DHT22;2136;48.502;9.194;2023-04-06T09:35:18;40.40;18.20
4245;DHT22;2136;48.502;9.194;2023-04-06T09:37:46;41.00;17.90
4245;DHT22;2136;48.502;9.194;2023-04-06T09:40:14;41.80;17.70
4245;DHT22;2136;48.502;9.194;2023-04-06T09:42:45;42.40;16.80
4245;DHT22;2136;48.502;9.194;2023-04-06T09:45:12;42.70;16.60
4245;DHT22;2136;48.502;9.194;2023-04-06T09:47:42;43.00;16.40
4245;DHT22;2136;48.502;9.194;2023-04-06T09:50:11;43.50;16.50
4245;DHT22;2136;48.502;9.194;2023-04-06T09:52:42;44.00;15.90
4245;DHT22;2136;48.502;9.194;2023-04-06T09:55:20;44.30;15.20
4245;DHT22;2136;48.502;9.194;2023-04-06T09:57:53;44.40;14.50
4245;DHT22;2136;48.502;9.194;2023-04-06T10:00:22;44.20;14.30
4245;DHT22;2136;48.502;9.194;2023-04-06T10:02:58;44.00;14.00
4245;DHT22;2136;48.502;9.194;2023-04-06T10:05:32;44.20;14.10
4245;DHT22;2136;48.502;9.194;2023-04-06T10:08:06;44.20;13.90
4245;DHT22;2136;48.502;9.194;2023-04-06T10:10:33;44.70;14.30
4245;DHT22;2136;48.502;9.194;2023-04-06T10:13:00;45.20;13.90
4245;DHT22;2136;48.502;9.194;2023-04-06T10:15:28;45.60;13.70
4245;DHT22;2136;48.502;9.194;2023-04-06T10:17:58;46.10;13.90
4245;DHT22;2136;48.502;9.194;2023-04-06T10:20:29;46.40;13.50
4245;DHT22;2136;48.502;9.194;2023-04-06T10:23:05;46.40;13.30
4245;DHT22;2136;48.502;9.194;2023-04-06T10:25:33;46.40;13.80
4245;DHT22;2136;48.502;9.194;2023-04-06T10:28:01;47.00;13.70
4245;DHT22;2136;48.502;9.194;2023-04-06T10:30:28;47.60;13.30
4245;DHT22;2136;48.502;9.194;2023-04-06T10:32:55;48.30;13.20
4245;DHT22;2136;48.502;9.194;2023-04-06T10:35:22;48.90;13.20
4245;DHT22;2136;48.502;9.194;2023-04-06T10:37:52;49.60;13.50
4245;DHT22;2136;48.502;9.194;2023-04-06T10:40:22;49.20;13.10
4245;DHT22;2136;48.502;9.194;2023-04-06T10:42:50;49.80;13.10
4245;DHT22;2136;48.502;9.194;2023-04-06T10:45:21;50.30;12.80
4245;DHT22;2136;48.502;9.194;2023-04-06T10:47:49;50.50;12.70
4245;DHT22;2136;48.502;9.194;2023-04-06T10:50:16;50.90;13.60
4245;DHT22;2136;48.502;9.194;2023-04-06T10:52:44;51.20;12.70
4245;DHT22;2136;48.502;9.194;2023-04-06T10:55:13;50.90;12.70
4245;DHT22;2136;48.502;9.194;2023-04-06T10:57:41;50.60;12.40
4245;DHT22;2136;48.502;9.194;2023-04-06T11:00:11;50.70;12.30
4245;DHT22;2136;48.502;9.194;2023-04-06T11:02:38;50.80;12.50
4245;DHT22;2136;48.502;9.194;2023-04-06T11:05:05;50.80;12.70
4245;DHT22;2136;48.502;9.194;2023-04-06T11:07:33;51.10;12.60
4245;DHT22;2136;48.502;9.194;2023-04-06T11:10:00;51.10;12.60
4245;DHT22;2136;48.502;9.194;2023-04-06T11:12:28;50.80;13.10
4245;DHT22;2136;48.502;9.194;2023-04-06T11:14:58;51.00;12.60
4245;DHT22;2136;48.502;9.194;2023-04-06T11:17:30;51.30;12.30
4245;DHT22;2136;48.502;9.194;2023-04-06T11:19:58;51.30;12.30
4245;DHT22;2136;48.502;9.194;2023-04-06T11:22:25;51.30;12.10
4245;DHT22;2136;48.502;9.194;2023-04-06T11:24:53;50.80;12.50
4245;DHT22;2136;48.502;9.194;2023-04-06T11:27:20;50.40;12.30
4245;DHT22;2136;48.502;9.194;2023-04-06T11:29:47;50.50;12.40
4245;DHT22;2136;48.502;9.194;2023-04-06T11:32:22;50.50;12.30
4245;DHT22;2136;48.502;9.194;2023-04-06T11:34:50;50.40;12.10
4245;DHT22;2136;48.502;9.194;2023-04-06T11:37:17;50.00;12.00
4245;DHT22;2136;48.502;9.194;2023-04-06T11:39:48;49.60;11.40
4245;DHT22;2136;48.502;9.194;2023-04-06T11:42:21;48.70;11.50
4245;DHT22;2136;48.502;9.194;2023-04-06T11:44:51;47.90;11.40
4245;DHT22;2136;48.502;9.194;2023-04-06T11:47:18;47.00;11.60
4245;DHT22;2136;48.502;9.194;2023-04-06T11:49:47;45.30;11.80
4245;DHT22;2136;48.502;9.194;2023-04-06T11:52:15;42.60;11.60
4245;DHT22;2136;48.502;9.194;2023-04-06T11:54:42;39.70;11.70
4245;DHT22;2136;48.502;9.194;2023-04-06T11:57:09;37.10;12.30
4245;DHT22;2136;48.502;9.194;2023-04-06T11:59:36;34.70;13.00
4245;DHT22;2136;48.502;9.194;2023-04-06T12:02:03;32.50;14.10
4245;DHT22;2136;48.502;9.194;2023-04-06T12:04:30;30.50;14.90
4245;DHT22;2136;48.502;9.194;2023-04-06T12:06:59;28.70;15.90
4245;DHT22;2136;48.502;9.194;2023-04-06T12:09:26;27.10;16.30
4245;DHT22;2136;48.502;9.194;2023-04-06T12:11:53;25.80;17.30
4245;DHT22;2136;48.502;9.194;2023-04-06T12:14:20;24.70;18.10
4245;DHT22;2136;48.502;9.194;2023-04-06T12:16:47;23.80;18.70
4245;DHT22;2136;48.502;9.194;2023-04-06T12:19:14;23.00;19.30
4245;DHT22;2136;48.502;9.194;2023-04-06T12:21:41;22.30;19.70
4245;DHT22;2136;48.502;9.194;2023-04-06T12:24:09;21.90;20.20
4245;DHT22;2136;48.502;9.194;2023-04-06T12:26:36;21.40;20.30
4245;DHT22;2136;48.502;9.194;2023-04-06T12:29:03;21.00;21.30
4245;DHT22;2136;48.502;9.194;2023-04-06T12:31:33;20.70;21.50
4245;DHT22;2136;48.502;9.194;2023-04-06T12:34:01;20.50;20.80
4245;DHT22;2136;48.502;9.194;2023-04-06T12:36:28;20.20;21.40
4245;DHT22;2136;48.502;9.194;2023-04-06T12:38:56;20.00;21.80
4245;DHT22;2136;48.502;9.194;2023-04-06T12:41:24;19.70;22.00
4245;DHT22;2136;48.502;9.194;2023-04-06T12:43:51;19.50;22.10
4245;DHT22;2136;48.502;9.194;2023-04-06T12:46:19;19.30;22.30
4245;DHT22;2136;48.502;9.194;2023-04-06T12:48:46;19.20;22.70
4245;DHT22;2136;48.502;9.194;2023-04-06T12:51:13;19.00;22.00
4245;DHT22;2136;48.502;9.194;2023-04-06T12:53:40;18.80;22.30
4245;DHT22;2136;48.502;9.194;2023-04-06T12:56:12;18.60;22.30
4245;DHT22;2136;48.502;9.194;2023-04-06T12:58:40;18.50;22.60
4245;DHT22;2136;48.502;9.194;2023-04-06T13:01:08;18.40;22.80
4245;DHT22;2136;48.502;9.194;2023-04-06T13:03:35;18.30;22.60
4245;DHT22;2136;48.502;9.194;2023-04-06T13:06:02;18.30;23.00
4245;DHT22;2136;48.502;9.194;2023-04-06T13:08:29;18.40;23.30
4245;DHT22;2136;48.502;9.194;2023-04-06T13:10:56;18.40;22.90
4245;DHT22;2136;48.502;9.194;2023-04-06T13:13:24;18.40;22.60
4245;DHT22;2136;48.502;9.194;2023-04-06T13:15:53;18.40;22.80
4245;DHT22;2136;48.502;9.194;2023-04-06T13:18:21;18.50;23.10
4245;DHT22;2136;48.502;9.194;2023-04-06T13:20:48;18.90;23.20
4245;DHT22;2136;48.502;9.194;2023-04-06T13:23:15;19.50;22.50
4245;DHT22;2136;48.502;9.194;2023-04-06T13:25:42;19.80;22.40
4245;DHT22;2136;48.502;9.194;2023-04-06T13:28:09;19.80;22.10
4245;DHT22;2136;48.502;9.194;2023-04-06T13:30:36;19.70;22.50
4245;DHT22;2136;48.502;9.194;2023-04-06T13:33:05;19.70;22.80
4245;DHT22;2136;48.502;9.194;2023-04-06T13:35:32;19.70;22.70
4245;DHT22;2136;48.502;9.194;2023-04-06T13:38:01;19.60;22.10
4245;DHT22;2136;48.502;9.194;2023-04-06T13:40:28;19.70;21.80
4245;DHT22;2136;48.502;9.194;2023-04-06T13:42:55;19.60;20.80
4245;DHT22;2136;48.502;9.194;2023-04-06T13:45:21;19.50;20.60
4245;DHT22;2136;48.502;9.194;2023-04-06T13:47:48;19.50;20.90
4245;DHT22;2136;48.502;9.194;2023-04-06T13:50:17;19.50;21.10
4245;DHT22;2136;48.502;9.194;2023-04-06T13:52:44;19.50;21.40
4245;DHT22;2136;48.502;9.194;2023-04-06T13:55:11;19.70;21.30
4245;DHT22;2136;48.502;9.194;2023-04-06T13:57:38;19.90;21.20
4245;DHT22;2136;48.502;9.194;2023-04-06T14:00:06;20.00;21.00
4245;DHT22;2136;48.502;9.194;2023-04-06T14:02:37;20.30;20.90
4245;DHT22;2136;48.502;9.194;2023-04-06T14:05:04;20.40;20.40
4245;DHT22;2136;48.502;9.194;2023-04-06T14:07:33;20.50;20.20
4245;DHT22;2136;48.502;9.194;2023-04-06T14:09:59;20.50;19.60
4245;DHT22;2136;48.502;9.194;2023-04-06T14:12:26;20.50;19.40
4245;DHT22;2136;48.502;9.194;2023-04-06T14:14:53;20.50;19.00
4245;DHT22;2136;48.502;9.194;2023-04-06T14:17:20;20.50;19.00
4245;DHT22;2136;48.502;9.194;2023-04-06T14:19:47;20.30;19.70
4245;DHT22;2136;48.502;9.194;2023-04-06T14:22:14;20.30;19.90
4245;DHT22;2136;48.502;9.194;2023-04-06T14:24:43;20.20;19.80
4245;DHT22;2136;48.502;9.194;2023-04-06T14:27:10;20.20;19.90
4245;DHT22;2136;48.502;9.194;2023-04-06T14:29:38;20.10;19.90
4245;DHT22;2136;48.502;9.194;2023-04-06T14:32:04;19.90;19.60
4245;DHT22;2136;48.502;9.194;2023-04-06T14:34:31;19.80;19.90
4245;DHT22;2136;48.502;9.194;2023-04-06T14:36:58;19.60;20.10
4245;DHT22;2136;48.502;9.194;2023-04-06T14:39:25;19.40;19.80
4245;DHT22;2136;48.502;9.194;2023-04-06T14:41:53;19.20;20.20
4245;DHT22;2136;48.502;9.194;2023-04-06T14:44:21;19.30;20.60
4245;DHT22;2136;48.502;9.194;2023-04-06T14:46:48;19.20;20.30
4245;DHT22;2136;48.502;9.194;2023-04-06T14:49:15;19.20;20.40
4245;DHT22;2136;48.502;9.194;2023-04-06T14:51:42;19.30;21.00
4245;DHT22;2136;48.502;9.194;2023-04-06T14:54:09;19.20;21.30
4245;DHT22;2136;48.502;9.194;2023-04-06T14:56:35;19.10;20.70
4245;DHT22;2136;48.502;9.194;2023-04-06T14:59:05;19.10;20.70
4245;DHT22;2136;48.502;9.194;2023-04-06T15:01:34;19.00;21.00
4245;DHT22;2136;48.502;9.194;2023-04-06T15:04:02;18.90;21.20
4245;DHT22;2136;48.502;9.194;2023-04-06T15:06:29;18.90;21.70
4245;DHT22;2136;48.502;9.194;2023-04-06T15:08:56;18.80;21.30
4245;DHT22;2136;48.502;9.194;2023-04-06T15:11:23;18.60;21.40
4245;DHT22;2136;48.502;9.194;2023-04-06T15:13:50;18.50;21.60
4245;DHT22;2136;48.502;9.194;2023-04-06T15:16:18;18.40;22.00
4245;DHT22;2136;48.502;9.194;2023-04-06T15:18:45;18.30;22.00
4245;DHT22;2136;48.502;9.194;2023-04-06T15:21:12;18.10;21.90
4245;DHT22;2136;48.502;9.194;2023-04-06T15:23:39;18.00;22.10
4245;DHT22;2136;48.502;9.194;2023-04-06T15:26:06;18.00;22.60
4245;DHT22;2136;48.502;9.194;2023-04-06T15:28:32;17.80;22.60
4245;DHT22;2136;48.502;9.194;2023-04-06T15:30:59;17.80;22.50
4245;DHT22;2136;48.502;9.194;2023-04-06T15:33:32;17.70;22.50
4245;DHT22;2136;48.502;9.194;2023-04-06T15:35:59;17.60;22.50
4245;DHT22;2136;48.502;9.194;2023-04-06T15:38:28;17.50;22.70
4245;DHT22;2136;48.502;9.194;2023-04-06T15:40:56;17.40;22.40
4245;DHT22;2136;48.502;9.194;2023-04-06T15:43:23;17.30;22.60
4245;DHT22;2136;48.502;9.194;2023-04-06T15:45:50;17.10;22.80
4245;DHT22;2136;48.502;9.194;2023-04-06T15:48:16;17.10;23.30
4245;DHT22;2136;48.502;9.194;2023-04-06T15:50:45;17.00;23.80
4245;DHT22;2136;48.502;9.194;2023-04-06T15:53:11;16.90;24.30
4245;DHT22;2136;48.502;9.194;2023-04-06T15:55:38;16.80;24.80
4245;DHT22;2136;48.502;9.194;2023-04-06T15:58:05;16.80;23.60
4245;DHT22;2136;48.502;9.194;2023-04-06T16:00:36;16.70;23.30
4245;DHT22;2136;48.502;9.194;2023-04-06T16:03:13;16.60;23.50
4245;DHT22;2136;48.502;9.194;2023-04-06T16:05:39;16.50;23.50
4245;DHT22;2136;48.502;9.194;2023-04-06T16:08:09;16.40;23.70
4245;DHT22;2136;48.502;9.194;2023-04-06T16:10:36;16.30;23.70
4245;DHT22;2136;48.502;9.194;2023-04-06T16:13:02;16.20;24.80
4245;DHT22;2136;48.502;9.194;2023-04-06T16:15:29;16.20;25.20
4245;DHT22;2136;48.502;9.194;2023-04-06T16:17:56;16.20;24.50